createdAt,value
2017-12-19T00:02:27.007Z,103249.10
2017-12-19T00:04:54.455Z,103253.98
2017-12-19T00:07:22.036Z,103252.34
2017-12-19T00:09:49.494Z,103252.34
2017-12-19T00:12:16.948Z,103250.97
2017-12-19T00:14:44.428Z,103251.19
2017-12-19T00:17:11.876Z,103255.28
2017-12-19T00:19:39.376Z,103259.09
2017-12-19T00:22:06.836Z,103262.66
2017-12-19T00:24:34.320Z,103268.62
2017-12-19T00:27:01.971Z,103274.63
2017-12-19T00:29:29.423Z,103271.34
2017-12-19T00:31:57.096Z,103270.25
2017-12-19T00:34:24.755Z,103267.76
2017-12-19T00:36:52.416Z,103265.03
2017-12-19T00:39:19.871Z,103266.11
2017-12-19T00:41:47.315Z,103281.08
2017-12-19T00:44:14.795Z,103280.80
2017-12-19T00:46:42.439Z,103278.86
2017-12-19T00:49:10.262Z,103281.59
2017-12-19T00:51:37.723Z,103277.78
2017-12-19T00:54:05.174Z,103283.23
2017-12-19T00:56:32.639Z,103297.36
2017-12-19T00:59:00.095Z,103301.16
2017-12-19T01:01:27.581Z,103297.34
2017-12-19T01:03:55.255Z,103318.28
2017-12-19T01:06:22.705Z,103324.52
2017-12-19T01:08:50.175Z,103328.60
2017-12-19T01:11:17.627Z,103323.72
2017-12-19T01:13:45.148Z,103316.62
2017-12-19T01:16:12.771Z,103320.71
2017-12-19T01:18:40.225Z,103319.86
2017-12-19T01:21:07.690Z,103316.05
2017-12-19T01:23:35.159Z,103330.47
2017-12-19T01:26:02.611Z,103329.38
2017-12-19T01:28:30.078Z,103335.63
2017-12-19T01:30:57.529Z,103338.91
2017-12-19T01:33:25.008Z,103333.41
2017-12-19T01:35:52.452Z,103333.96
2017-12-19T01:38:19.932Z,103347.28
2017-12-19T01:40:47.395Z,103335.55
2017-12-19T01:43:14.871Z,103345.64
2017-12-19T01:45:42.318Z,103342.34
2017-12-19T01:48:09.791Z,103358.68
2017-12-19T01:50:37.266Z,103355.12
2017-12-19T01:53:04.724Z,103343.41
2017-12-19T01:55:32.516Z,103348.02
2017-12-19T01:57:59.975Z,103365.67
2017-12-19T02:00:27.428Z,103372.98
2017-12-19T02:02:54.904Z,103376.56
2017-12-19T02:05:22.359Z,103374.05
2017-12-19T02:07:49.839Z,103384.45
2017-12-19T02:10:17.290Z,103377.90
2017-12-19T02:12:44.762Z,103364.51
2017-12-19T02:15:12.221Z,103364.51
2017-12-19T02:17:39.692Z,103372.68
2017-12-19T02:20:07.139Z,103364.23
2017-12-19T02:22:34.613Z,103367.50
2017-12-19T02:25:02.059Z,103368.87
2017-12-19T02:27:29.539Z,103382.99
2017-12-19T02:29:56.979Z,103390.07
2017-12-19T02:32:24.456Z,103397.39
2017-12-19T02:34:52.111Z,103408.27
2017-12-19T02:37:19.590Z,103407.48
2017-12-19T02:39:47.242Z,103404.98
2017-12-19T02:42:14.687Z,103402.80
2017-12-19T02:44:42.158Z,103403.33
2017-12-19T02:47:09.615Z,103410.14
2017-12-19T02:49:37.095Z,103415.58
2017-12-19T02:52:04.547Z,103413.63
2017-12-19T02:54:32.015Z,103410.91
2017-12-19T02:56:59.470Z,103414.99
2017-12-19T02:59:27.431Z,103406.54
2017-12-19T03:01:54.883Z,103403.53
2017-12-19T03:04:22.336Z,103407.33
2017-12-19T03:06:49.816Z,103410.60
2017-12-19T03:09:17.263Z,103419.28
2017-12-19T03:11:44.735Z,103416.27
2017-12-19T03:14:12.218Z,103411.68
2017-12-19T03:16:39.896Z,103399.94
2017-12-19T03:19:07.351Z,103407.02
2017-12-19T03:21:34.834Z,103405.88
2017-12-19T03:24:02.299Z,103402.35
2017-12-19T03:26:29.943Z,103411.09
2017-12-19T03:28:57.420Z,103410.23
2017-12-19T03:31:24.876Z,103418.39
2017-12-19T03:33:52.359Z,103419.76
2017-12-19T03:36:19.820Z,103415.11
2017-12-19T03:38:47.275Z,103412.66
2017-12-19T03:41:14.742Z,103417.26
2017-12-19T03:43:42.204Z,103406.09
2017-12-19T03:46:09.686Z,103412.09
2017-12-19T03:48:37.143Z,103416.67
2017-12-19T03:51:04.590Z,103415.58
2017-12-19T03:53:32.069Z,103407.93
2017-12-19T03:55:59.521Z,103424.55
2017-12-19T03:58:27.004Z,103431.91
2017-12-19T04:00:54.464Z,103426.69
2017-12-19T04:03:21.952Z,103422.87
2017-12-19T04:05:49.398Z,103429.13
2017-12-19T04:08:16.867Z,103428.32
2017-12-19T04:10:44.328Z,103422.59
2017-12-19T04:13:11.799Z,103423.66
2017-12-19T04:15:39.260Z,103425.81
2017-12-19T04:18:06.716Z,103438.07
2017-12-19T04:20:34.197Z,103437.78
2017-12-19T04:23:01.833Z,103434.25
2017-12-19T04:25:29.310Z,103435.33
2017-12-19T04:27:56.771Z,103443.78
2017-12-19T04:30:24.243Z,103438.05
2017-12-19T04:32:51.691Z,103432.87
2017-12-19T04:35:19.156Z,103446.77
2017-12-19T04:37:46.640Z,103443.46
2017-12-19T04:40:14.272Z,103451.62
2017-12-19T04:42:41.752Z,103457.07
2017-12-19T04:45:09.231Z,103455.42
2017-12-19T04:47:36.692Z,103457.30
2017-12-19T04:50:04.140Z,103458.14
2017-12-19T04:52:31.812Z,103456.20
2017-12-19T04:54:59.259Z,103461.09
2017-12-19T04:57:26.735Z,103470.60
2017-12-19T04:59:54.192Z,103480.98
2017-12-19T05:02:21.675Z,103486.15
2017-12-19T05:04:49.127Z,103486.15
2017-12-19T05:07:16.600Z,103490.53
2017-12-19T05:09:44.051Z,103485.94
2017-12-19T05:12:11.520Z,103496.29
2017-12-19T05:14:38.979Z,103493.56
2017-12-19T05:17:06.460Z,103504.81
2017-12-19T05:19:33.910Z,103508.92
2017-12-19T05:22:01.376Z,103516.31
2017-12-19T05:24:28.823Z,103519.91
2017-12-19T05:26:56.283Z,103519.43
2017-12-19T05:29:23.764Z,103530.97
2017-12-19T05:31:51.220Z,103535.66
2017-12-19T05:34:18.700Z,103537.89
2017-12-19T05:36:46.152Z,103542.88
2017-12-19T05:39:13.620Z,103546.80
2017-12-19T05:41:41.102Z,103553.41
2017-12-19T05:44:08.791Z,103552.40
2017-12-19T05:46:36.246Z,103551.91
2017-12-19T05:49:03.750Z,103553.59
2017-12-19T05:51:31.392Z,103547.14
2017-12-19T05:53:58.835Z,103543.36
2017-12-19T05:56:26.304Z,103546.45
2017-12-19T05:58:53.947Z,103559.24
2017-12-19T06:01:21.611Z,103559.05
2017-12-19T06:03:49.063Z,103565.91
2017-12-19T06:06:16.746Z,103567.30
2017-12-19T06:08:44.186Z,103572.27
2017-12-19T06:11:11.639Z,103569.05
2017-12-19T06:13:38.918Z,103567.75
2017-12-19T06:16:06.375Z,103565.60
2017-12-19T06:18:33.843Z,103564.52
2017-12-19T06:21:01.285Z,103570.84
2017-12-19T06:23:29.235Z,103565.13
2017-12-19T06:25:56.688Z,103578.53
2017-12-19T06:28:24.138Z,103564.92
2017-12-19T06:30:51.635Z,103565.51
2017-12-19T06:33:19.079Z,103561.99
2017-12-19T06:35:46.755Z,103568.83
2017-12-19T06:38:14.207Z,103570.19
2017-12-19T06:40:41.689Z,103571.35
2017-12-19T06:43:09.347Z,103565.08
2017-12-19T06:45:36.805Z,103568.66
2017-12-19T06:48:04.271Z,103570.03
2017-12-19T06:50:31.734Z,103576.07
2017-12-19T06:52:59.220Z,103595.73
2017-12-19T06:55:26.874Z,103599.03
2017-12-19T06:57:54.322Z,103587.61
2017-12-19T07:00:22.044Z,103597.73
2017-12-19T07:02:49.652Z,103599.09
2017-12-19T07:05:17.109Z,103595.58
2017-12-19T07:07:44.579Z,103593.14
2017-12-19T07:10:12.034Z,103597.53
2017-12-19T07:12:39.492Z,103603.06
2017-12-19T07:15:07.002Z,103595.18
2017-12-19T07:17:34.652Z,103600.93
2017-12-19T07:20:02.113Z,103593.61
2017-12-19T07:22:29.775Z,103598.79
2017-12-19T07:24:57.256Z,103604.05
2017-12-19T07:27:24.716Z,103601.34
2017-12-19T07:29:52.503Z,103604.36
2017-12-19T07:32:19.951Z,103603.55
2017-12-19T07:34:47.398Z,103609.59
2017-12-19T07:37:15.087Z,103614.48
2017-12-19T07:39:42.543Z,103625.40
2017-12-19T07:42:10.060Z,103621.58
2017-12-19T07:44:37.699Z,103615.34
2017-12-19T07:47:05.149Z,103613.70
2017-12-19T07:49:32.826Z,103618.64
2017-12-19T07:52:00.479Z,103621.09
2017-12-19T07:54:27.967Z,103618.37
2017-12-19T07:56:55.614Z,103620.02
2017-12-19T07:59:23.195Z,103620.02
2017-12-19T08:01:50.842Z,103621.67
2017-12-19T08:04:18.499Z,103626.61
2017-12-19T08:06:45.960Z,103637.25
2017-12-19T08:09:13.625Z,103637.54
2017-12-19T08:11:41.111Z,103632.38
2017-12-19T08:14:08.562Z,103644.13
2017-12-19T08:16:36.200Z,103647.66
2017-12-19T08:19:03.909Z,103652.61
2017-12-19T08:21:31.567Z,103662.96
2017-12-19T08:23:59.315Z,103672.57
2017-12-19T08:26:26.776Z,103664.90
2017-12-19T08:28:54.224Z,103669.06
2017-12-19T08:31:21.708Z,103665.77
2017-12-19T08:33:49.166Z,103675.05
2017-12-19T08:36:16.631Z,103684.88
2017-12-19T08:38:44.283Z,103689.05
2017-12-19T08:41:11.736Z,103684.95
2017-12-19T08:43:39.187Z,103699.75
2017-12-19T08:46:06.677Z,103708.51
2017-12-19T08:48:34.355Z,103709.09
2017-12-19T08:51:01.802Z,103704.49
2017-12-19T08:53:29.256Z,103709.10
2017-12-19T08:55:56.936Z,103709.67
2017-12-19T08:58:24.588Z,103713.76
2017-12-19T09:00:52.275Z,103712.10
2017-12-19T09:03:19.726Z,103718.66
2017-12-19T09:05:47.414Z,103716.51
2017-12-19T09:08:14.866Z,103710.82
2017-12-19T09:10:42.320Z,103715.79
2017-12-19T09:13:09.800Z,103719.61
2017-12-19T09:15:37.563Z,103719.66
2017-12-19T09:18:05.040Z,103725.73
2017-12-19T09:20:32.524Z,103731.47
2017-12-19T09:23:00.003Z,103736.43
2017-12-19T09:25:27.659Z,103753.39
2017-12-19T09:27:55.283Z,103760.23
2017-12-19T09:30:22.736Z,103751.81
2017-12-19T09:32:50.190Z,103757.29
2017-12-19T09:35:17.667Z,103748.87
2017-12-19T09:37:45.132Z,103748.37
2017-12-19T09:40:12.612Z,103751.40
2017-12-19T09:42:40.263Z,103756.07
2017-12-19T09:45:07.760Z,103761.81
2017-12-19T09:47:35.206Z,103760.74
2017-12-19T09:50:02.695Z,103755.57
2017-12-19T09:52:30.171Z,103754.79
2017-12-19T09:54:57.632Z,103745.52
2017-12-19T09:57:25.379Z,103756.21
2017-12-19T09:59:53.035Z,103763.34
2017-12-19T10:02:20.294Z,103748.03
2017-12-19T10:04:47.764Z,103759.25
2017-12-19T10:07:15.416Z,103763.07
2017-12-19T10:09:42.868Z,103760.12
2017-12-19T10:12:10.319Z,103777.30
2017-12-19T10:14:37.786Z,103773.20
2017-12-19T10:17:05.246Z,103774.06
2017-12-19T10:19:32.724Z,103774.35
2017-12-19T10:22:00.184Z,103770.59
2017-12-19T10:24:27.712Z,103754.19
2017-12-19T10:26:55.302Z,103763.53
2017-12-19T10:29:22.784Z,103763.81
2017-12-19T10:31:50.439Z,103762.17
2017-12-19T10:34:17.923Z,103771.79
2017-12-19T10:36:45.584Z,103754.33
2017-12-19T10:39:13.035Z,103742.03
2017-12-19T10:41:40.791Z,103747.51
2017-12-19T10:44:08.252Z,103748.93
2017-12-19T10:46:35.898Z,103750.59
2017-12-19T10:49:03.374Z,103747.00
2017-12-19T10:51:30.823Z,103757.93
2017-12-19T10:53:58.291Z,103755.76
2017-12-19T10:56:25.963Z,103753.31
2017-12-19T10:58:53.415Z,103758.22
2017-12-19T11:01:20.895Z,103760.15
2017-12-19T11:03:48.342Z,103751.39
2017-12-19T11:06:15.795Z,103758.22
2017-12-19T11:08:43.243Z,103761.23
2017-12-19T11:11:10.696Z,103764.25
2017-12-19T11:13:38.152Z,103759.93
2017-12-19T11:16:05.609Z,103761.53
2017-12-19T11:18:33.100Z,103761.80
2017-12-19T11:21:00.546Z,103763.16
2017-12-19T11:23:28.235Z,103774.38
2017-12-19T11:25:55.690Z,103768.35
2017-12-19T11:28:23.492Z,103773.88
2017-12-19T11:30:50.928Z,103762.39
2017-12-19T11:33:18.375Z,103767.62
2017-12-19T11:35:45.832Z,103768.13
2017-12-19T11:38:13.283Z,103749.01
2017-12-19T11:40:40.545Z,103759.71
2017-12-19T11:43:08.224Z,103755.61
2017-12-19T11:45:35.852Z,103752.02
2017-12-19T11:48:03.305Z,103744.39
2017-12-19T11:50:30.955Z,103752.30
2017-12-19T11:52:58.423Z,103744.90
2017-12-19T11:55:25.883Z,103744.55
2017-12-19T11:57:53.542Z,103734.19
2017-12-19T12:00:20.991Z,103722.13
2017-12-19T12:02:48.655Z,103722.40
2017-12-19T12:05:16.304Z,103721.03
2017-12-19T12:07:43.763Z,103728.09
2017-12-19T12:10:11.211Z,103721.83
2017-12-19T12:12:38.668Z,103714.44
2017-12-19T12:15:06.159Z,103716.37
2017-12-19T12:17:33.604Z,103723.20
2017-12-19T12:20:01.068Z,103723.48
2017-12-19T12:22:28.728Z,103716.65
2017-12-19T12:24:56.183Z,103713.64
2017-12-19T12:27:23.634Z,103720.74
2017-12-19T12:29:51.096Z,103721.84
2017-12-19T12:32:18.559Z,103721.03
2017-12-19T12:34:46.011Z,103728.95
2017-12-19T12:37:13.473Z,103724.84
2017-12-19T12:39:40.927Z,103722.91
2017-12-19T12:42:08.387Z,103724.00
2017-12-19T12:44:35.839Z,103731.90
2017-12-19T12:47:03.287Z,103730.02
2017-12-19T12:49:30.747Z,103724.80
2017-12-19T12:51:58.194Z,103730.81
2017-12-19T12:54:25.659Z,103730.81
2017-12-19T12:56:53.108Z,103732.70
2017-12-19T12:59:20.608Z,103738.16
2017-12-19T13:01:48.060Z,103728.60
2017-12-19T13:04:15.528Z,103720.97
2017-12-19T13:06:42.990Z,103719.88
2017-12-19T13:09:10.435Z,103727.01
2017-12-19T13:11:37.887Z,103721.26
2017-12-19T13:14:05.336Z,103718.81
2017-12-19T13:16:32.789Z,103712.27
2017-12-19T13:19:00.243Z,103710.90
2017-12-19T13:24:07.335Z,103712.05
2017-12-19T13:26:34.792Z,103712.85
2017-12-19T13:29:02.252Z,103710.12
2017-12-19T13:31:29.880Z,103711.48
2017-12-19T13:33:57.331Z,103712.62
2017-12-19T13:36:24.972Z,103722.98
2017-12-19T13:38:52.420Z,103718.10
2017-12-19T13:41:19.875Z,103720.59
2017-12-19T13:43:47.331Z,103728.28
2017-12-19T13:46:14.816Z,103727.21
2017-12-19T13:48:42.258Z,103722.54
2017-12-19T13:51:09.711Z,103725.00
2017-12-19T13:53:37.159Z,103723.64
2017-12-19T13:56:04.616Z,103728.30
2017-12-19T13:58:32.071Z,103737.59
2017-12-19T14:00:59.525Z,103741.97
2017-12-19T14:03:26.977Z,103736.80
2017-12-19T14:05:54.436Z,103739.00
2017-12-19T14:08:21.882Z,103730.24
2017-12-19T14:10:49.327Z,103729.17
2017-12-19T14:13:16.788Z,103725.63
2017-12-19T14:15:44.248Z,103740.10
2017-12-19T14:18:11.859Z,103737.13
2017-12-19T14:20:39.312Z,103739.86
2017-12-19T14:23:06.572Z,103734.40
2017-12-19T14:25:34.024Z,103740.66
2017-12-19T14:28:01.479Z,103742.32
2017-12-19T14:30:28.936Z,103741.80
2017-12-19T14:32:56.398Z,103744.55
2017-12-19T14:35:23.871Z,103745.62
2017-12-19T14:37:51.327Z,103740.95
2017-12-19T14:40:18.783Z,103738.21
2017-12-19T14:42:46.235Z,103731.89
2017-12-19T14:45:13.687Z,103740.66
2017-12-19T14:47:41.162Z,103732.75
2017-12-19T14:50:08.619Z,103733.03
2017-12-19T14:52:36.100Z,103731.10
2017-12-19T14:55:03.884Z,103721.31
2017-12-19T14:57:31.283Z,103715.34
2017-12-19T14:59:58.726Z,103726.04
2017-12-19T15:02:26.184Z,103729.27
2017-12-19T15:04:53.627Z,103693.22
2017-12-19T15:07:21.084Z,103727.98
2017-12-19T15:09:48.536Z,103729.35
2017-12-19T15:12:15.990Z,103722.52
2017-12-19T15:14:43.448Z,103727.66
2017-12-19T15:17:11.168Z,103729.32
2017-12-19T15:19:38.779Z,103725.51
2017-12-19T15:22:06.436Z,103727.73
2017-12-19T15:24:33.886Z,103718.15
2017-12-19T15:27:01.331Z,103714.34
2017-12-19T15:29:28.960Z,103717.36
2017-12-19T15:31:56.412Z,103707.52
2017-12-19T15:34:23.888Z,103701.81
2017-12-19T15:36:51.556Z,103700.96
2017-12-19T15:39:19.008Z,103698.98
2017-12-19T15:41:46.468Z,103695.27
2017-12-19T15:44:13.924Z,103698.57
2017-12-19T15:46:41.416Z,103698.52
2017-12-19T15:49:08.873Z,103701.81
2017-12-19T15:51:36.553Z,103711.90
2017-12-19T15:54:03.999Z,103718.73
2017-12-19T15:56:31.671Z,103723.40
2017-12-19T15:58:59.127Z,103722.84
2017-12-19T16:01:26.769Z,103724.20
2017-12-19T16:03:54.230Z,103728.30
2017-12-19T16:06:21.883Z,103733.26
2017-12-19T16:08:49.535Z,103730.23
2017-12-19T16:11:16.988Z,103729.66
2017-12-19T16:13:44.441Z,103724.20
2017-12-19T16:16:11.887Z,103731.59
2017-12-19T16:18:39.340Z,103728.58
2017-12-19T16:21:06.793Z,103730.76
2017-12-19T16:23:34.480Z,103733.20
2017-12-19T16:26:01.937Z,103736.55
2017-12-19T16:28:29.426Z,103729.45
2017-12-19T16:30:56.938Z,103736.55
2017-12-19T16:33:24.438Z,103730.24
2017-12-19T16:35:51.895Z,103726.98
2017-12-19T16:38:19.348Z,103725.85
2017-12-19T16:40:46.803Z,103723.40
2017-12-19T16:43:14.251Z,103723.97
2017-12-19T16:45:41.707Z,103729.73
2017-12-19T16:48:09.159Z,103731.60
2017-12-19T16:50:36.632Z,103736.84
2017-12-19T16:53:04.086Z,103741.46
2017-12-19T16:55:31.717Z,103738.49
2017-12-19T16:57:59.380Z,103742.59
2017-12-19T17:00:27.036Z,103733.55
2017-12-19T17:02:54.507Z,103734.39
2017-12-19T17:05:21.975Z,103746.13
2017-12-19T17:07:49.422Z,103741.46
2017-12-19T17:10:16.875Z,103742.31
2017-12-19T17:12:44.328Z,103742.82
2017-12-19T17:15:11.859Z,103743.10
2017-12-19T17:17:39.303Z,103746.91
2017-12-19T17:20:06.944Z,103746.36
2017-12-19T17:22:34.395Z,103757.85
2017-12-19T17:25:02.048Z,103762.48
2017-12-19T17:27:29.494Z,103758.15
2017-12-19T17:29:56.962Z,103758.96
2017-12-19T17:32:24.415Z,103754.52
2017-12-19T17:34:51.866Z,103757.20
2017-12-19T17:37:19.319Z,103755.30
2017-12-19T17:39:46.774Z,103755.55
2017-12-19T17:42:14.231Z,103760.22
2017-12-19T17:44:41.688Z,103761.07
2017-12-19T17:47:09.143Z,103770.35
2017-12-19T17:49:36.595Z,103765.70
2017-12-19T17:52:05.242Z,103765.96
2017-12-19T17:54:32.702Z,103761.86
2017-12-19T17:57:00.156Z,103764.03
2017-12-19T17:59:27.608Z,103763.23
2017-12-19T18:01:55.064Z,103763.23
2017-12-19T18:04:22.519Z,103762.66
2017-12-19T18:06:49.975Z,103763.23
2017-12-19T18:09:17.426Z,103761.86
2017-12-19T18:11:44.876Z,103765.12
2017-12-19T18:14:12.363Z,103772.24
2017-12-19T18:16:40.012Z,103772.23
2017-12-19T18:19:07.451Z,103770.81
2017-12-19T18:21:34.902Z,103771.38
2017-12-19T18:24:02.348Z,103774.91
2017-12-19T18:26:29.996Z,103773.02
2017-12-19T18:28:57.452Z,103769.73
2017-12-19T18:31:25.083Z,103770.86
2017-12-19T18:33:52.750Z,103768.70
2017-12-19T18:36:20.194Z,103769.55
2017-12-19T18:38:47.675Z,103770.13
2017-12-19T18:41:15.111Z,103763.80
2017-12-19T18:43:42.586Z,103757.81
2017-12-19T18:46:10.040Z,103764.95
2017-12-19T18:48:37.516Z,103761.70
2017-12-19T18:51:05.343Z,103766.88
2017-12-19T18:53:32.796Z,103766.59
2017-12-19T18:56:00.448Z,103766.59
2017-12-19T18:58:27.899Z,103759.47
2017-12-19T19:00:55.356Z,103756.45
2017-12-19T19:03:22.808Z,103754.52
2017-12-19T19:05:50.263Z,103759.71
2017-12-19T19:08:17.724Z,103762.44
2017-12-19T19:10:45.179Z,103767.39
2017-12-19T19:13:12.833Z,103764.37
2017-12-19T19:15:40.300Z,103771.20
2017-12-19T19:18:07.824Z,103768.98
2017-12-19T19:20:36.424Z,103770.30
2017-12-19T19:23:03.881Z,103773.32
2017-12-19T19:25:31.530Z,103771.09
2017-12-19T19:27:58.987Z,103774.77
2017-12-19T19:30:26.457Z,103774.59
2017-12-19T19:32:54.116Z,103767.91
2017-12-19T19:35:21.555Z,103764.18
2017-12-19T19:37:49.015Z,103759.30
2017-12-19T19:40:16.467Z,103758.77
2017-12-19T19:42:44.132Z,103761.51
2017-12-19T19:45:11.590Z,103764.55
2017-12-19T19:47:39.253Z,103767.84
2017-12-19T19:50:06.908Z,103765.68
2017-12-19T19:52:34.573Z,103764.02
2017-12-19T19:55:02.024Z,103766.24
2017-12-19T19:57:29.664Z,103773.88
2017-12-19T19:59:57.116Z,103779.60
2017-12-19T20:02:24.571Z,103777.47
2017-12-19T20:04:52.030Z,103770.34
2017-12-19T20:07:19.656Z,103770.58
2017-12-19T20:09:47.107Z,103771.93
2017-12-19T20:12:14.555Z,103764.26
2017-12-19T20:14:42.011Z,103762.88
2017-12-19T20:17:09.683Z,103762.30
2017-12-19T20:19:37.138Z,103766.98
2017-12-19T20:22:04.662Z,103764.23
2017-12-19T20:24:32.128Z,103767.21
2017-12-19T20:26:59.572Z,103765.03
2017-12-19T20:29:27.028Z,103764.82
2017-12-19T20:31:54.688Z,103769.84
2017-12-19T20:34:22.160Z,103763.66
2017-12-19T20:36:49.624Z,103762.55
2017-12-19T20:39:17.075Z,103762.89
2017-12-19T20:41:44.538Z,103764.75
2017-12-19T20:44:12.004Z,103754.27
2017-12-19T20:46:39.659Z,103761.04
2017-12-19T20:49:07.111Z,103761.07
2017-12-19T20:51:34.767Z,103757.76
2017-12-19T20:54:02.224Z,103772.22
2017-12-19T20:56:29.691Z,103766.47
2017-12-19T20:58:57.146Z,103766.19
2017-12-19T21:01:24.814Z,103770.79
2017-12-19T21:03:52.463Z,103762.88
2017-12-19T21:06:19.933Z,103763.45
2017-12-19T21:08:47.395Z,103764.70
2017-12-19T21:11:14.840Z,103753.98
2017-12-19T21:13:42.297Z,103756.41
2017-12-19T21:16:09.967Z,103750.88
2017-12-19T21:18:37.414Z,103745.70
2017-12-19T21:21:04.867Z,103752.47
2017-12-19T21:23:32.327Z,103747.22
2017-12-19T21:25:59.793Z,103744.76
2017-12-19T21:28:27.452Z,103743.62
2017-12-19T21:30:54.899Z,103743.84
2017-12-19T21:33:22.363Z,103743.27
2017-12-19T21:35:49.823Z,103740.49
2017-12-19T21:38:17.159Z,103731.72
2017-12-19T21:40:44.715Z,103732.80
2017-12-19T21:43:12.235Z,103732.23
2017-12-19T21:45:39.692Z,103730.84
2017-12-19T21:48:07.148Z,103724.80
2017-12-19T21:50:34.596Z,103733.52
2017-12-19T21:53:02.043Z,103726.67
2017-12-19T21:55:29.499Z,103728.83
2017-12-19T21:57:57.038Z,103723.08
2017-12-19T22:00:24.515Z,103718.41
2017-12-19T22:02:52.018Z,103722.73
2017-12-19T22:05:19.473Z,103724.88
2017-12-19T22:07:47.072Z,103722.43
2017-12-19T22:10:14.524Z,103725.16
2017-12-19T22:12:41.976Z,103727.32
2017-12-19T22:15:09.439Z,103724.01
2017-12-19T22:17:36.890Z,103727.82
2017-12-19T22:20:04.339Z,103730.77
2017-12-19T22:22:31.787Z,103724.45
2017-12-19T22:24:59.243Z,103727.74
2017-12-19T22:27:26.711Z,103736.72
2017-12-19T22:29:54.147Z,103732.05
2017-12-19T22:32:21.643Z,103736.93
2017-12-19T22:34:49.288Z,103738.56
2017-12-19T22:37:16.738Z,103736.34
2017-12-19T22:39:44.208Z,103742.08
2017-12-19T22:42:11.654Z,103740.42
2017-12-19T22:44:39.115Z,103730.29
2017-12-19T22:47:06.554Z,103734.10
2017-12-19T22:49:34.023Z,103731.08
2017-12-19T22:52:01.455Z,103741.72
2017-12-19T22:54:28.899Z,103738.41
2017-12-19T22:56:56.371Z,103743.87
2017-12-19T22:59:23.814Z,103749.03
2017-12-19T23:01:51.267Z,103752.77
2017-12-19T23:04:18.711Z,103756.87
2017-12-19T23:06:46.168Z,103757.65
2017-12-19T23:09:13.615Z,103757.92
2017-12-19T23:11:41.063Z,103758.15
2017-12-19T23:14:08.524Z,103754.84
2017-12-19T23:16:35.978Z,103755.13
2017-12-19T23:19:03.432Z,103749.94
2017-12-19T23:21:30.892Z,103749.36
2017-12-19T23:23:58.368Z,103742.77
2017-12-19T23:26:25.820Z,103743.84
2017-12-19T23:28:53.326Z,103742.18
2017-12-19T23:31:20.978Z,103740.29
2017-12-19T23:33:48.415Z,103742.73
2017-12-19T23:36:15.875Z,103729.59
2017-12-19T23:38:43.328Z,103720.31
2017-12-19T23:41:10.784Z,103717.81
2017-12-19T23:43:38.240Z,103716.45
2017-12-19T23:46:05.690Z,103714.80
2017-12-19T23:48:33.145Z,103710.41
2017-12-19T23:51:00.595Z,103715.06
2017-12-19T23:53:28.060Z,103714.48
2017-12-19T23:55:55.528Z,103723.74
2017-12-19T23:58:22.967Z,103721.23
